HEH weather

Torre Empresarial Helipad
Villahermosa, Tabasco, Mexico

Public forecast

Using degrees Celsius for public forecast. Weather courtesy of forecast.io.

Closest aviation weather report (METAR) to Torre Empresarial Helipad

Closest report is Carlos Rovirosa Pérez International Airport, 7.0 nm (12.9 km) E. Retrieved 2020/02/23 21:43 UTC (1 hour ago):

MMVA 232143Z 01006KT 7SM SCT016 27/16 A2998 RMK 8/100

Closest aviation forecast (TAF) to Torre Empresarial Helipad

Closest forecast is Carlos Rovirosa Pérez International Airport, 7.0 nm (12.9 km) E. Retrieved 2020/02/23 18:00 UTC (5 hours ago):

TAF MMVA 231657Z 2318/2418 10015KT SCT015 BKN050 FM240300 00000KT 3SM BR OVC005 FM241200 00000KT 1SM BR OVC002 FM241600 12010KT 3SM BR SCT005 OVC015